sensor_id;sensor_type;location;lat;lon;timestamp;P1;durP1;ratioP1;P2;durP2;ratioP2
3712;SDS011;1872;51.406;6.856;2023-05-07T00:00:27;7.13;;;6.43;;
3712;SDS011;1872;51.406;6.856;2023-05-07T00:02:56;7.67;;;6.97;;
3712;SDS011;1872;51.406;6.856;2023-05-07T00:05:22;7.93;;;7.13;;
3712;SDS011;1872;51.406;6.856;2023-05-07T00:07:47;8.20;;;7.40;;
3712;SDS011;1872;51.406;6.856;2023-05-07T00:10:13;9.00;;;8.03;;
3712;SDS011;1872;51.406;6.856;2023-05-07T00:12:39;6.97;;;6.33;;
3712;SDS011;1872;51.406;6.856;2023-05-07T00:15:05;7.17;;;6.57;;
3712;SDS011;1872;51.406;6.856;2023-05-07T00:17:32;7.50;;;6.80;;
3712;SDS011;1872;51.406;6.856;2023-05-07T00:20:01;7.30;;;6.70;;
3712;SDS011;1872;51.406;6.856;2023-05-07T00:22:28;7.13;;;6.50;;
3712;SDS011;1872;51.406;6.856;2023-05-07T00:24:55;8.33;;;7.53;;
3712;SDS011;1872;51.406;6.856;2023-05-07T00:27:21;10.27;;;7.37;;
3712;SDS011;1872;51.406;6.856;2023-05-07T00:29:47;9.03;;;7.47;;
3712;SDS011;1872;51.406;6.856;2023-05-07T00:32:12;8.13;;;7.43;;
3712;SDS011;1872;51.406;6.856;2023-05-07T00:34:38;8.00;;;7.30;;
3712;SDS011;1872;51.406;6.856;2023-05-07T00:37:04;7.13;;;6.50;;
3712;SDS011;1872;51.406;6.856;2023-05-07T00:39:32;7.27;;;6.63;;
3712;SDS011;1872;51.406;6.856;2023-05-07T00:41:58;7.80;;;7.20;;
3712;SDS011;1872;51.406;6.856;2023-05-07T00:44:25;7.40;;;6.70;;
3712;SDS011;1872;51.406;6.856;2023-05-07T00:46:51;8.93;;;6.60;;
3712;SDS011;1872;51.406;6.856;2023-05-07T00:49:17;7.30;;;6.70;;
3712;SDS011;1872;51.406;6.856;2023-05-07T00:51:43;7.50;;;6.80;;
3712;SDS011;1872;51.406;6.856;2023-05-07T00:54:09;6.63;;;6.03;;
3712;SDS011;1872;51.406;6.856;2023-05-07T00:56:36;7.03;;;6.40;;
3712;SDS011;1872;51.406;6.856;2023-05-07T00:59:02;8.80;;;6.90;;
3712;SDS011;1872;51.406;6.856;2023-05-07T01:01:28;7.00;;;6.40;;
3712;SDS011;1872;51.406;6.856;2023-05-07T01:03:54;7.10;;;6.50;;
3712;SDS011;1872;51.406;6.856;2023-05-07T01:06:20;7.43;;;6.73;;
3712;SDS011;1872;51.406;6.856;2023-05-07T01:08:48;7.47;;;6.83;;
3712;SDS011;1872;51.406;6.856;2023-05-07T01:11:15;7.50;;;6.80;;
3712;SDS011;1872;51.406;6.856;2023-05-07T01:13:44;8.10;;;7.37;;
3712;SDS011;1872;51.406;6.856;2023-05-07T01:16:10;7.53;;;6.83;;
3712;SDS011;1872;51.406;6.856;2023-05-07T01:18:36;7.97;;;7.03;;
3712;SDS011;1872;51.406;6.856;2023-05-07T01:21:02;8.87;;;7.67;;
3712;SDS011;1872;51.406;6.856;2023-05-07T01:23:30;7.70;;;7.00;;
3712;SDS011;1872;51.406;6.856;2023-05-07T01:25:56;7.10;;;6.50;;
3712;SDS011;1872;51.406;6.856;2023-05-07T01:28:21;7.73;;;7.03;;
3712;SDS011;1872;51.406;6.856;2023-05-07T01:30:48;7.63;;;6.93;;
3712;SDS011;1872;51.406;6.856;2023-05-07T01:33:28;7.30;;;6.70;;
3712;SDS011;1872;51.406;6.856;2023-05-07T01:35:56;7.70;;;7.00;;
3712;SDS011;1872;51.406;6.856;2023-05-07T01:38:25;7.83;;;7.20;;
3712;SDS011;1872;51.406;6.856;2023-05-07T01:40:52;7.80;;;7.10;;
3712;SDS011;1872;51.406;6.856;2023-05-07T01:43:18;8.90;;;8.00;;
3712;SDS011;1872;51.406;6.856;2023-05-07T01:45:44;9.13;;;8.33;;
3712;SDS011;1872;51.406;6.856;2023-05-07T01:48:11;11.10;;;9.90;;
3712;SDS011;1872;51.406;6.856;2023-05-07T01:50:39;10.33;;;9.33;;
3712;SDS011;1872;51.406;6.856;2023-05-07T01:53:04;12.03;;;10.70;;
3712;SDS011;1872;51.406;6.856;2023-05-07T01:55:30;10.57;;;9.67;;
3712;SDS011;1872;51.406;6.856;2023-05-07T01:57:56;10.90;;;9.67;;
3712;SDS011;1872;51.406;6.856;2023-05-07T02:00:22;11.80;;;9.10;;
3712;SDS011;1872;51.406;6.856;2023-05-07T02:02:48;10.80;;;9.70;;
3712;SDS011;1872;51.406;6.856;2023-05-07T02:05:13;11.60;;;10.50;;
3712;SDS011;1872;51.406;6.856;2023-05-07T02:07:39;10.83;;;9.83;;
3712;SDS011;1872;51.406;6.856;2023-05-07T02:10:05;9.83;;;8.93;;
3712;SDS011;1872;51.406;6.856;2023-05-07T02:12:31;10.63;;;9.63;;
3712;SDS011;1872;51.406;6.856;2023-05-07T02:14:56;11.73;;;9.87;;
3712;SDS011;1872;51.406;6.856;2023-05-07T02:17:22;10.60;;;9.67;;
3712;SDS011;1872;51.406;6.856;2023-05-07T02:19:48;12.07;;;10.20;;
3712;SDS011;1872;51.406;6.856;2023-05-07T02:22:13;10.13;;;9.10;;
3712;SDS011;1872;51.406;6.856;2023-05-07T02:24:39;10.70;;;9.70;;
3712;SDS011;1872;51.406;6.856;2023-05-07T02:27:05;9.73;;;8.83;;
3712;SDS011;1872;51.406;6.856;2023-05-07T02:29:30;10.23;;;9.23;;
3712;SDS011;1872;51.406;6.856;2023-05-07T02:31:56;10.40;;;9.30;;
3712;SDS011;1872;51.406;6.856;2023-05-07T02:34:21;11.57;;;9.87;;
3712;SDS011;1872;51.406;6.856;2023-05-07T02:36:47;12.77;;;10.10;;
3712;SDS011;1872;51.406;6.856;2023-05-07T02:39:13;10.20;;;9.20;;
3712;SDS011;1872;51.406;6.856;2023-05-07T02:41:39;10.47;;;9.30;;
3712;SDS011;1872;51.406;6.856;2023-05-07T02:44:05;9.63;;;8.70;;
3712;SDS011;1872;51.406;6.856;2023-05-07T02:46:31;10.20;;;9.20;;
3712;SDS011;1872;51.406;6.856;2023-05-07T02:48:56;10.10;;;9.00;;
3712;SDS011;1872;51.406;6.856;2023-05-07T02:51:22;9.50;;;8.60;;
3712;SDS011;1872;51.406;6.856;2023-05-07T02:53:48;9.20;;;8.17;;
3712;SDS011;1872;51.406;6.856;2023-05-07T02:56:13;11.83;;;10.33;;
3712;SDS011;1872;51.406;6.856;2023-05-07T02:58:39;10.73;;;9.83;;
3712;SDS011;1872;51.406;6.856;2023-05-07T03:01:05;10.17;;;9.20;;
3712;SDS011;1872;51.406;6.856;2023-05-07T03:03:31;9.80;;;8.83;;
3712;SDS011;1872;51.406;6.856;2023-05-07T03:05:57;9.03;;;8.23;;
3712;SDS011;1872;51.406;6.856;2023-05-07T03:08:24;9.80;;;8.90;;
3712;SDS011;1872;51.406;6.856;2023-05-07T03:10:50;9.90;;;8.90;;
3712;SDS011;1872;51.406;6.856;2023-05-07T03:13:16;11.30;;;10.03;;
3712;SDS011;1872;51.406;6.856;2023-05-07T03:15:41;12.17;;;10.97;;
3712;SDS011;1872;51.406;6.856;2023-05-07T03:18:07;11.87;;;10.57;;
3712;SDS011;1872;51.406;6.856;2023-05-07T03:20:33;10.73;;;9.70;;
3712;SDS011;1872;51.406;6.856;2023-05-07T03:22:58;10.50;;;9.53;;
3712;SDS011;1872;51.406;6.856;2023-05-07T03:25:24;9.43;;;8.40;;
3712;SDS011;1872;51.406;6.856;2023-05-07T03:27:50;11.77;;;9.90;;
3712;SDS011;1872;51.406;6.856;2023-05-07T03:30:15;11.17;;;10.17;;
3712;SDS011;1872;51.406;6.856;2023-05-07T03:32:41;12.93;;;10.33;;
3712;SDS011;1872;51.406;6.856;2023-05-07T03:35:07;12.20;;;11.00;;
3712;SDS011;1872;51.406;6.856;2023-05-07T03:37:32;10.43;;;9.50;;
3712;SDS011;1872;51.406;6.856;2023-05-07T03:39:58;11.63;;;9.83;;
3712;SDS011;1872;51.406;6.856;2023-05-07T03:42:24;10.37;;;9.40;;
3712;SDS011;1872;51.406;6.856;2023-05-07T03:44:49;11.10;;;9.60;;
3712;SDS011;1872;51.406;6.856;2023-05-07T03:47:15;11.10;;;10.00;;
3712;SDS011;1872;51.406;6.856;2023-05-07T03:49:41;10.80;;;9.73;;
3712;SDS011;1872;51.406;6.856;2023-05-07T03:52:06;9.90;;;8.90;;
3712;SDS011;1872;51.406;6.856;2023-05-07T03:54:32;11.93;;;9.97;;
3712;SDS011;1872;51.406;6.856;2023-05-07T03:56:57;11.90;;;10.80;;
3712;SDS011;1872;51.406;6.856;2023-05-07T03:59:23;10.63;;;9.63;;
3712;SDS011;1872;51.406;6.856;2023-05-07T04:01:49;11.53;;;10.43;;
3712;SDS011;1872;51.406;6.856;2023-05-07T04:04:15;12.03;;;10.80;;
3712;SDS011;1872;51.406;6.856;2023-05-07T04:06:41;11.00;;;9.90;;
3712;SDS011;1872;51.406;6.856;2023-05-07T04:09:07;11.20;;;10.13;;
3712;SDS011;1872;51.406;6.856;2023-05-07T04:11:33;13.73;;;10.77;;
3712;SDS011;1872;51.406;6.856;2023-05-07T04:14:00;12.23;;;10.17;;
3712;SDS011;1872;51.406;6.856;2023-05-07T04:16:26;11.27;;;10.10;;
3712;SDS011;1872;51.406;6.856;2023-05-07T04:18:51;11.03;;;9.93;;
3712;SDS011;1872;51.406;6.856;2023-05-07T04:21:17;11.00;;;9.97;;
3712;SDS011;1872;51.406;6.856;2023-05-07T04:23:45;10.83;;;9.57;;
3712;SDS011;1872;51.406;6.856;2023-05-07T04:26:12;10.47;;;9.30;;
3712;SDS011;1872;51.406;6.856;2023-05-07T04:28:38;10.80;;;9.70;;
3712;SDS011;1872;51.406;6.856;2023-05-07T04:31:05;11.70;;;10.50;;
3712;SDS011;1872;51.406;6.856;2023-05-07T04:33:31;10.00;;;9.00;;
3712;SDS011;1872;51.406;6.856;2023-05-07T04:35:58;10.23;;;9.23;;
3712;SDS011;1872;51.406;6.856;2023-05-07T04:38:28;11.13;;;10.00;;
3712;SDS011;1872;51.406;6.856;2023-05-07T04:40:57;11.27;;;10.13;;
3712;SDS011;1872;51.406;6.856;2023-05-07T04:43:27;12.13;;;10.60;;
3712;SDS011;1872;51.406;6.856;2023-05-07T04:45:53;11.47;;;10.10;;
3712;SDS011;1872;51.406;6.856;2023-05-07T04:48:19;9.90;;;8.90;;
3712;SDS011;1872;51.406;6.856;2023-05-07T04:50:49;10.77;;;9.77;;
3712;SDS011;1872;51.406;6.856;2023-05-07T04:53:15;16.20;;;11.10;;
3712;SDS011;1872;51.406;6.856;2023-05-07T04:55:41;13.37;;;11.50;;
3712;SDS011;1872;51.406;6.856;2023-05-07T04:58:07;14.03;;;11.27;;
3712;SDS011;1872;51.406;6.856;2023-05-07T05:00:33;12.87;;;11.30;;
3712;SDS011;1872;51.406;6.856;2023-05-07T05:02:59;14.00;;;12.23;;
3712;SDS011;1872;51.406;6.856;2023-05-07T05:05:25;13.20;;;11.33;;
3712;SDS011;1872;51.406;6.856;2023-05-07T05:07:50;12.47;;;11.03;;
3712;SDS011;1872;51.406;6.856;2023-05-07T05:10:17;12.93;;;11.63;;
3712;SDS011;1872;51.406;6.856;2023-05-07T05:12:43;13.20;;;11.90;;
3712;SDS011;1872;51.406;6.856;2023-05-07T05:15:10;13.10;;;11.80;;
3712;SDS011;1872;51.406;6.856;2023-05-07T05:17:36;14.50;;;12.67;;
3712;SDS011;1872;51.406;6.856;2023-05-07T05:20:02;13.43;;;12.03;;
3712;SDS011;1872;51.406;6.856;2023-05-07T05:22:28;14.70;;;12.07;;
3712;SDS011;1872;51.406;6.856;2023-05-07T05:24:57;12.97;;;11.60;;
3712;SDS011;1872;51.406;6.856;2023-05-07T05:27:22;13.30;;;11.97;;
3712;SDS011;1872;51.406;6.856;2023-05-07T05:29:49;13.83;;;12.43;;
3712;SDS011;1872;51.406;6.856;2023-05-07T05:32:14;11.87;;;10.73;;
3712;SDS011;1872;51.406;6.856;2023-05-07T05:34:40;16.63;;;12.47;;
3712;SDS011;1872;51.406;6.856;2023-05-07T05:37:05;14.40;;;12.67;;
3712;SDS011;1872;51.406;6.856;2023-05-07T05:39:31;13.73;;;12.20;;
3712;SDS011;1872;51.406;6.856;2023-05-07T05:41:57;12.27;;;11.00;;
3712;SDS011;1872;51.406;6.856;2023-05-07T05:44:22;13.77;;;12.37;;
3712;SDS011;1872;51.406;6.856;2023-05-07T05:46:48;14.87;;;12.33;;
3712;SDS011;1872;51.406;6.856;2023-05-07T05:49:14;16.60;;;12.67;;
3712;SDS011;1872;51.406;6.856;2023-05-07T05:51:40;15.63;;;12.77;;
3712;SDS011;1872;51.406;6.856;2023-05-07T05:54:06;13.37;;;11.80;;
3712;SDS011;1872;51.406;6.856;2023-05-07T05:56:31;15.60;;;13.87;;
3712;SDS011;1872;51.406;6.856;2023-05-07T05:58:57;12.60;;;11.30;;
3712;SDS011;1872;51.406;6.856;2023-05-07T06:01:23;14.13;;;12.70;;
3712;SDS011;1872;51.406;6.856;2023-05-07T06:03:49;14.10;;;12.70;;
3712;SDS011;1872;51.406;6.856;2023-05-07T06:06:14;13.53;;;12.10;;
3712;SDS011;1872;51.406;6.856;2023-05-07T06:08:40;13.37;;;11.97;;
3712;SDS011;1872;51.406;6.856;2023-05-07T06:11:07;12.83;;;11.53;;
3712;SDS011;1872;51.406;6.856;2023-05-07T06:13:32;13.47;;;12.17;;
3712;SDS011;1872;51.406;6.856;2023-05-07T06:15:58;12.70;;;11.40;;
3712;SDS011;1872;51.406;6.856;2023-05-07T06:18:24;15.47;;;12.00;;
3712;SDS011;1872;51.406;6.856;2023-05-07T06:20:50;13.63;;;11.50;;
3712;SDS011;1872;51.406;6.856;2023-05-07T06:23:16;11.60;;;10.40;;
3712;SDS011;1872;51.406;6.856;2023-05-07T06:25:42;10.93;;;9.97;;
3712;SDS011;1872;51.406;6.856;2023-05-07T06:28:10;14.87;;;10.77;;
3712;SDS011;1872;51.406;6.856;2023-05-07T06:30:36;11.40;;;10.30;;
3712;SDS011;1872;51.406;6.856;2023-05-07T06:33:02;11.20;;;10.10;;
3712;SDS011;1872;51.406;6.856;2023-05-07T06:35:27;11.27;;;9.87;;
3712;SDS011;1872;51.406;6.856;2023-05-07T06:37:53;10.77;;;9.30;;
3712;SDS011;1872;51.406;6.856;2023-05-07T06:40:18;10.47;;;9.53;;
3712;SDS011;1872;51.406;6.856;2023-05-07T06:42:44;10.30;;;9.20;;
3712;SDS011;1872;51.406;6.856;2023-05-07T06:45:10;10.37;;;9.27;;
3712;SDS011;1872;51.406;6.856;2023-05-07T06:47:36;8.73;;;7.93;;
3712;SDS011;1872;51.406;6.856;2023-05-07T06:50:01;10.60;;;9.50;;
3712;SDS011;1872;51.406;6.856;2023-05-07T06:52:27;8.90;;;8.10;;
3712;SDS011;1872;51.406;6.856;2023-05-07T06:54:53;8.23;;;7.53;;
3712;SDS011;1872;51.406;6.856;2023-05-07T06:57:18;8.50;;;7.70;;
3712;SDS011;1872;51.406;6.856;2023-05-07T06:59:44;8.20;;;7.50;;
3712;SDS011;1872;51.406;6.856;2023-05-07T07:02:09;7.67;;;7.07;;
3712;SDS011;1872;51.406;6.856;2023-05-07T07:04:35;7.70;;;7.03;;
3712;SDS011;1872;51.406;6.856;2023-05-07T07:07:01;7.23;;;6.50;;
3712;SDS011;1872;51.406;6.856;2023-05-07T07:09:26;7.50;;;6.80;;
3712;SDS011;1872;51.406;6.856;2023-05-07T07:11:52;7.37;;;6.70;;
3712;SDS011;1872;51.406;6.856;2023-05-07T07:14:17;8.07;;;6.63;;
3712;SDS011;1872;51.406;6.856;2023-05-07T07:16:43;6.50;;;5.93;;
3712;SDS011;1872;51.406;6.856;2023-05-07T07:19:09;6.53;;;5.93;;
3712;SDS011;1872;51.406;6.856;2023-05-07T07:21:34;9.30;;;7.30;;
3712;SDS011;1872;51.406;6.856;2023-05-07T07:24:00;7.13;;;6.60;;
3712;SDS011;1872;51.406;6.856;2023-05-07T07:26:25;7.20;;;6.50;;
3712;SDS011;1872;51.406;6.856;2023-05-07T07:28:52;6.70;;;6.20;;
3712;SDS011;1872;51.406;6.856;2023-05-07T07:31:18;6.40;;;5.80;;
3712;SDS011;1872;51.406;6.856;2023-05-07T07:33:43;6.37;;;5.77;;
3712;SDS011;1872;51.406;6.856;2023-05-07T07:36:09;7.83;;;6.27;;
3712;SDS011;1872;51.406;6.856;2023-05-07T07:38:35;6.53;;;5.87;;
3712;SDS011;1872;51.406;6.856;2023-05-07T07:41:01;7.50;;;6.33;;
3712;SDS011;1872;51.406;6.856;2023-05-07T07:43:27;7.60;;;5.60;;
3712;SDS011;1872;51.406;6.856;2023-05-07T07:45:53;6.60;;;5.43;;
3712;SDS011;1872;51.406;6.856;2023-05-07T07:48:18;7.00;;;6.10;;
3712;SDS011;1872;51.406;6.856;2023-05-07T07:50:44;6.13;;;5.63;;
3712;SDS011;1872;51.406;6.856;2023-05-07T07:53:10;7.00;;;6.30;;
3712;SDS011;1872;51.406;6.856;2023-05-07T07:55:39;6.13;;;5.53;;
3712;SDS011;1872;51.406;6.856;2023-05-07T07:58:06;5.50;;;5.00;;
3712;SDS011;1872;51.406;6.856;2023-05-07T08:00:31;6.53;;;6.03;;
3712;SDS011;1872;51.406;6.856;2023-05-07T08:02:57;5.83;;;5.27;;
3712;SDS011;1872;51.406;6.856;2023-05-07T08:05:23;5.50;;;5.10;;
3712;SDS011;1872;51.406;6.856;2023-05-07T08:07:48;8.47;;;6.77;;
3712;SDS011;1872;51.406;6.856;2023-05-07T08:10:18;4.53;;;4.23;;
3712;SDS011;1872;51.406;6.856;2023-05-07T08:12:48;5.37;;;4.70;;
3712;SDS011;1872;51.406;6.856;2023-05-07T08:15:14;4.93;;;4.53;;
3712;SDS011;1872;51.406;6.856;2023-05-07T08:17:40;4.97;;;4.57;;
3712;SDS011;1872;51.406;6.856;2023-05-07T08:20:06;6.10;;;5.60;;
3712;SDS011;1872;51.406;6.856;2023-05-07T08:22:32;5.00;;;4.60;;
3712;SDS011;1872;51.406;6.856;2023-05-07T08:24:59;4.63;;;4.33;;
3712;SDS011;1872;51.406;6.856;2023-05-07T08:27:25;4.43;;;4.03;;
3712;SDS011;1872;51.406;6.856;2023-05-07T08:29:51;4.00;;;3.63;;
3712;SDS011;1872;51.406;6.856;2023-05-07T08:32:16;5.23;;;4.73;;
3712;SDS011;1872;51.406;6.856;2023-05-07T08:34:42;6.33;;;4.50;;
3712;SDS011;1872;51.406;6.856;2023-05-07T08:37:07;4.70;;;4.20;;
3712;SDS011;1872;51.406;6.856;2023-05-07T08:39:33;4.30;;;4.00;;
3712;SDS011;1872;51.406;6.856;2023-05-07T08:41:59;4.40;;;4.10;;
3712;SDS011;1872;51.406;6.856;2023-05-07T08:44:27;4.03;;;3.63;;
3712;SDS011;1872;51.406;6.856;2023-05-07T08:46:56;4.90;;;4.50;;
3712;SDS011;1872;51.406;6.856;2023-05-07T08:49:26;4.60;;;4.20;;
3712;SDS011;1872;51.406;6.856;2023-05-07T08:51:52;4.35;;;3.95;;
3712;SDS011;1872;51.406;6.856;2023-05-07T08:54:18;4.40;;;4.10;;
3712;SDS011;1872;51.406;6.856;2023-05-07T08:56:45;3.87;;;3.50;;
3712;SDS011;1872;51.406;6.856;2023-05-07T08:59:11;4.00;;;3.70;;
3712;SDS011;1872;51.406;6.856;2023-05-07T09:01:36;3.90;;;3.60;;
3712;SDS011;1872;51.406;6.856;2023-05-07T09:04:03;3.70;;;3.40;;
3712;SDS011;1872;51.406;6.856;2023-05-07T09:06:31;4.37;;;3.97;;
3712;SDS011;1872;51.406;6.856;2023-05-07T09:08:57;3.47;;;3.17;;
3712;SDS011;1872;51.406;6.856;2023-05-07T09:11:26;3.60;;;3.27;;
3712;SDS011;1872;51.406;6.856;2023-05-07T09:13:55;3.37;;;3.07;;
3712;SDS011;1872;51.406;6.856;2023-05-07T09:16:28;3.93;;;3.63;;
3712;SDS011;1872;51.406;6.856;2023-05-07T09:18:57;4.00;;;3.70;;
3712;SDS011;1872;51.406;6.856;2023-05-07T09:21:23;3.40;;;3.20;;
3712;SDS011;1872;51.406;6.856;2023-05-07T09:23:53;6.27;;;3.70;;
3712;SDS011;1872;51.406;6.856;2023-05-07T09:26:23;3.87;;;3.60;;
3712;SDS011;1872;51.406;6.856;2023-05-07T09:28:49;3.17;;;2.90;;
3712;SDS011;1872;51.406;6.856;2023-05-07T09:31:15;3.90;;;3.60;;
3712;SDS011;1872;51.406;6.856;2023-05-07T09:33:41;3.30;;;3.10;;
3712;SDS011;1872;51.406;6.856;2023-05-07T09:36:08;3.20;;;2.90;;
3712;SDS011;1872;51.406;6.856;2023-05-07T09:38:35;3.60;;;3.30;;
3712;SDS011;1872;51.406;6.856;2023-05-07T09:41:05;3.00;;;2.60;;
3712;SDS011;1872;51.406;6.856;2023-05-07T09:43:33;2.70;;;2.50;;
3712;SDS011;1872;51.406;6.856;2023-05-07T09:46:03;3.10;;;2.90;;
3712;SDS011;1872;51.406;6.856;2023-05-07T09:48:42;3.10;;;2.90;;
3712;SDS011;1872;51.406;6.856;2023-05-07T09:51:25;3.57;;;3.27;;
3712;SDS011;1872;51.406;6.856;2023-05-07T09:53:55;19.03;;;4.37;;
3712;SDS011;1872;51.406;6.856;2023-05-07T09:56:26;4.40;;;3.17;;
3712;SDS011;1872;51.406;6.856;2023-05-07T09:58:52;3.90;;;3.60;;
3712;SDS011;1872;51.406;6.856;2023-05-07T10:01:21;3.70;;;3.40;;
3712;SDS011;1872;51.406;6.856;2023-05-07T10:03:47;3.37;;;3.10;;
3712;SDS011;1872;51.406;6.856;2023-05-07T10:06:16;7.57;;;5.10;;
3712;SDS011;1872;51.406;6.856;2023-05-07T10:08:42;2.63;;;2.43;;
3712;SDS011;1872;51.406;6.856;2023-05-07T10:11:09;3.50;;;2.53;;
3712;SDS011;1872;51.406;6.856;2023-05-07T10:13:35;3.37;;;3.10;;
3712;SDS011;1872;51.406;6.856;2023-05-07T10:16:05;3.00;;;2.80;;
3712;SDS011;1872;51.406;6.856;2023-05-07T10:18:31;4.43;;;3.03;;
3712;SDS011;1872;51.406;6.856;2023-05-07T10:21:07;3.70;;;2.57;;
3712;SDS011;1872;51.406;6.856;2023-05-07T10:23:33;3.03;;;2.80;;
3712;SDS011;1872;51.406;6.856;2023-05-07T10:26:02;2.97;;;2.70;;
3712;SDS011;1872;51.406;6.856;2023-05-07T10:28:30;3.40;;;3.10;;
3712;SDS011;1872;51.406;6.856;2023-05-07T10:31:07;3.60;;;2.80;;
3712;SDS011;1872;51.406;6.856;2023-05-07T10:33:38;3.20;;;2.90;;
3712;SDS011;1872;51.406;6.856;2023-05-07T10:36:05;3.70;;;3.30;;
3712;SDS011;1872;51.406;6.856;2023-05-07T10:38:32;3.87;;;3.20;;
3712;SDS011;1872;51.406;6.856;2023-05-07T10:40:59;3.97;;;3.60;;
3712;SDS011;1872;51.406;6.856;2023-05-07T10:43:24;3.57;;;3.27;;
3712;SDS011;1872;51.406;6.856;2023-05-07T10:46:09;3.67;;;3.30;;
3712;SDS011;1872;51.406;6.856;2023-05-07T10:51:31;3.47;;;3.23;;
3712;SDS011;1872;51.406;6.856;2023-05-07T10:56:42;3.90;;;3.50;;
3712;SDS011;1872;51.406;6.856;2023-05-07T11:01:49;3.87;;;3.57;;
3712;SDS011;1872;51.406;6.856;2023-05-07T11:04:23;4.23;;;3.60;;
3712;SDS011;1872;51.406;6.856;2023-05-07T11:12:18;3.57;;;3.37;;
3712;SDS011;1872;51.406;6.856;2023-05-07T11:17:56;3.63;;;3.37;;
3712;SDS011;1872;51.406;6.856;2023-05-07T11:26:00;3.87;;;3.57;;
3712;SDS011;1872;51.406;6.856;2023-05-07T11:28:27;5.80;;;3.50;;
3712;SDS011;1872;51.406;6.856;2023-05-07T11:30:54;4.13;;;3.73;;
3712;SDS011;1872;51.406;6.856;2023-05-07T11:33:22;4.20;;;3.60;;
3712;SDS011;1872;51.406;6.856;2023-05-07T11:35:50;3.93;;;3.63;;
3712;SDS011;1872;51.406;6.856;2023-05-07T11:38:18;4.63;;;4.23;;
3712;SDS011;1872;51.406;6.856;2023-05-07T11:40:51;3.67;;;3.47;;
3712;SDS011;1872;51.406;6.856;2023-05-07T11:43:17;4.13;;;3.83;;
3712;SDS011;1872;51.406;6.856;2023-05-07T11:45:46;4.70;;;4.20;;
3712;SDS011;1872;51.406;6.856;2023-05-07T11:48:12;4.40;;;4.00;;
3712;SDS011;1872;51.406;6.856;2023-05-07T11:50:59;6.10;;;4.67;;
3712;SDS011;1872;51.406;6.856;2023-05-07T11:53:27;3.93;;;3.60;;
3712;SDS011;1872;51.406;6.856;2023-05-07T11:56:00;7.53;;;4.47;;
3712;SDS011;1872;51.406;6.856;2023-05-07T11:58:30;4.50;;;4.20;;
3712;SDS011;1872;51.406;6.856;2023-05-07T12:00:56;4.90;;;4.50;;
3712;SDS011;1872;51.406;6.856;2023-05-07T12:03:22;4.93;;;4.50;;
3712;SDS011;1872;51.406;6.856;2023-05-07T12:05:48;5.40;;;4.50;;
3712;SDS011;1872;51.406;6.856;2023-05-07T12:08:14;4.38;;;3.40;;
3712;SDS011;1872;51.406;6.856;2023-05-07T12:10:43;6.00;;;4.70;;
3712;SDS011;1872;51.406;6.856;2023-05-07T12:13:23;5.43;;;4.43;;
3712;SDS011;1872;51.406;6.856;2023-05-07T12:15:53;5.13;;;4.73;;
3712;SDS011;1872;51.406;6.856;2023-05-07T12:18:21;4.33;;;4.03;;
3712;SDS011;1872;51.406;6.856;2023-05-07T12:20:48;6.50;;;4.80;;
3712;SDS011;1872;51.406;6.856;2023-05-07T12:23:14;4.90;;;4.43;;
3712;SDS011;1872;51.406;6.856;2023-05-07T12:25:41;5.80;;;5.30;;
3712;SDS011;1872;51.406;6.856;2023-05-07T12:28:14;5.40;;;4.90;;
3712;SDS011;1872;51.406;6.856;2023-05-07T12:30:41;5.17;;;4.57;;
3712;SDS011;1872;51.406;6.856;2023-05-07T12:33:08;5.30;;;4.80;;
3712;SDS011;1872;51.406;6.856;2023-05-07T12:35:38;5.23;;;4.73;;
3712;SDS011;1872;51.406;6.856;2023-05-07T12:38:12;5.53;;;5.03;;
3712;SDS011;1872;51.406;6.856;2023-05-07T12:45:49;4.97;;;4.57;;
3712;SDS011;1872;51.406;6.856;2023-05-07T12:48:18;4.73;;;4.17;;
3712;SDS011;1872;51.406;6.856;2023-05-07T12:50:45;5.10;;;4.70;;
3712;SDS011;1872;51.406;6.856;2023-05-07T12:53:14;5.17;;;4.77;;
3712;SDS011;1872;51.406;6.856;2023-05-07T12:55:41;4.33;;;4.03;;
3712;SDS011;1872;51.406;6.856;2023-05-07T12:58:18;9.73;;;7.17;;
3712;SDS011;1872;51.406;6.856;2023-05-07T13:00:54;15.80;;;8.20;;
3712;SDS011;1872;51.406;6.856;2023-05-07T13:03:33;10.33;;;8.00;;
3712;SDS011;1872;51.406;6.856;2023-05-07T13:06:09;8.63;;;7.80;;
3712;SDS011;1872;51.406;6.856;2023-05-07T13:08:38;9.53;;;8.63;;
3712;SDS011;1872;51.406;6.856;2023-05-07T13:11:14;12.30;;;8.37;;
3712;SDS011;1872;51.406;6.856;2023-05-07T13:13:41;12.87;;;9.90;;
3712;SDS011;1872;51.406;6.856;2023-05-07T13:16:15;11.23;;;10.10;;
3712;SDS011;1872;51.406;6.856;2023-05-07T13:18:46;11.23;;;10.13;;
3712;SDS011;1872;51.406;6.856;2023-05-07T13:21:13;12.80;;;11.57;;
3712;SDS011;1872;51.406;6.856;2023-05-07T13:23:39;10.70;;;9.50;;
3712;SDS011;1872;51.406;6.856;2023-05-07T13:26:05;11.20;;;10.13;;
3712;SDS011;1872;51.406;6.856;2023-05-07T13:28:35;11.97;;;10.50;;
3712;SDS011;1872;51.406;6.856;2023-05-07T13:31:00;13.40;;;12.00;;
3712;SDS011;1872;51.406;6.856;2023-05-07T13:33:26;12.30;;;11.07;;
3712;SDS011;1872;51.406;6.856;2023-05-07T13:35:54;12.77;;;11.37;;
3712;SDS011;1872;51.406;6.856;2023-05-07T13:38:22;13.47;;;11.43;;
3712;SDS011;1872;51.406;6.856;2023-05-07T13:40:47;14.37;;;12.03;;
3712;SDS011;1872;51.406;6.856;2023-05-07T13:43:13;18.37;;;13.50;;
3712;SDS011;1872;51.406;6.856;2023-05-07T13:45:39;16.27;;;12.67;;
3712;SDS011;1872;51.406;6.856;2023-05-07T13:48:07;14.37;;;12.83;;
3712;SDS011;1872;51.406;6.856;2023-05-07T13:50:33;15.07;;;12.90;;
3712;SDS011;1872;51.406;6.856;2023-05-07T13:52:59;14.30;;;11.77;;
3712;SDS011;1872;51.406;6.856;2023-05-07T13:55:28;14.87;;;12.53;;
3712;SDS011;1872;51.406;6.856;2023-05-07T13:57:55;13.30;;;12.00;;
3712;SDS011;1872;51.406;6.856;2023-05-07T14:00:25;13.40;;;12.00;;
3712;SDS011;1872;51.406;6.856;2023-05-07T14:02:52;15.50;;;13.37;;
3712;SDS011;1872;51.406;6.856;2023-05-07T14:05:21;14.37;;;12.80;;
3712;SDS011;1872;51.406;6.856;2023-05-07T14:07:53;15.67;;;12.20;;
3712;SDS011;1872;51.406;6.856;2023-05-07T14:10:20;13.30;;;12.00;;
3712;SDS011;1872;51.406;6.856;2023-05-07T14:12:45;13.77;;;12.47;;
3712;SDS011;1872;51.406;6.856;2023-05-07T14:15:12;14.67;;;12.00;;
3712;SDS011;1872;51.406;6.856;2023-05-07T14:17:38;13.90;;;12.00;;
3712;SDS011;1872;51.406;6.856;2023-05-07T14:20:03;14.00;;;12.60;;
3712;SDS011;1872;51.406;6.856;2023-05-07T14:22:31;17.67;;;14.57;;
3712;SDS011;1872;51.406;6.856;2023-05-07T14:24:57;15.40;;;12.93;;
3712;SDS011;1872;51.406;6.856;2023-05-07T14:27:25;15.50;;;14.00;;
3712;SDS011;1872;51.406;6.856;2023-05-07T14:29:51;14.73;;;12.80;;
3712;SDS011;1872;51.406;6.856;2023-05-07T14:32:25;14.47;;;12.97;;
3712;SDS011;1872;51.406;6.856;2023-05-07T14:34:51;16.70;;;13.57;;
3712;SDS011;1872;51.406;6.856;2023-05-07T14:37:17;14.43;;;11.60;;
3712;SDS011;1872;51.406;6.856;2023-05-07T14:39:44;13.40;;;12.00;;
3712;SDS011;1872;51.406;6.856;2023-05-07T14:42:10;13.47;;;10.23;;
3712;SDS011;1872;51.406;6.856;2023-05-07T14:44:37;12.27;;;10.00;;
3712;SDS011;1872;51.406;6.856;2023-05-07T14:49:40;10.37;;;9.27;;
3712;SDS011;1872;51.406;6.856;2023-05-07T14:52:07;10.53;;;9.40;;
3712;SDS011;1872;51.406;6.856;2023-05-07T14:54:34;11.27;;;9.87;;
3712;SDS011;1872;51.406;6.856;2023-05-07T14:57:00;12.70;;;9.80;;
3712;SDS011;1872;51.406;6.856;2023-05-07T14:59:26;10.60;;;9.47;;
3712;SDS011;1872;51.406;6.856;2023-05-07T15:01:52;10.70;;;9.20;;
3712;SDS011;1872;51.406;6.856;2023-05-07T15:04:18;12.20;;;10.60;;
3712;SDS011;1872;51.406;6.856;2023-05-07T15:06:44;11.20;;;9.80;;
3712;SDS011;1872;51.406;6.856;2023-05-07T15:09:11;10.90;;;9.47;;
3712;SDS011;1872;51.406;6.856;2023-05-07T15:11:36;11.07;;;9.97;;
3712;SDS011;1872;51.406;6.856;2023-05-07T15:14:02;12.27;;;10.03;;
3712;SDS011;1872;51.406;6.856;2023-05-07T15:19:02;10.77;;;9.70;;
3712;SDS011;1872;51.406;6.856;2023-05-07T15:21:28;11.53;;;10.43;;
3712;SDS011;1872;51.406;6.856;2023-05-07T15:23:55;10.77;;;9.67;;
3712;SDS011;1872;51.406;6.856;2023-05-07T15:26:21;12.77;;;11.40;;
3712;SDS011;1872;51.406;6.856;2023-05-07T15:28:47;12.50;;;11.20;;
3712;SDS011;1872;51.406;6.856;2023-05-07T15:31:12;13.00;;;11.47;;
3712;SDS011;1872;51.406;6.856;2023-05-07T15:33:38;12.20;;;11.00;;
3712;SDS011;1872;51.406;6.856;2023-05-07T15:36:04;12.40;;;11.20;;